createdAt,value
2018-07-02T00:02:24.519Z,12.42
2018-07-02T00:04:51.672Z,12.75
2018-07-02T00:07:22.765Z,13.08
2018-07-02T00:09:50.376Z,13.20
2018-07-02T00:12:18.481Z,13.06
2018-07-02T00:14:46.740Z,12.95
2018-07-02T00:17:13.931Z,12.98
2018-07-02T00:19:41.133Z,12.92
2018-07-02T00:22:08.467Z,12.86
2018-07-02T00:24:35.616Z,12.10
2018-07-02T00:27:02.741Z,11.73
2018-07-02T00:29:29.948Z,11.55
2018-07-02T00:31:57.066Z,12.02
2018-07-02T00:34:24.329Z,12.41
2018-07-02T00:36:51.555Z,12.24
2018-07-02T00:39:18.755Z,12.01
2018-07-02T00:41:45.924Z,11.79
2018-07-02T00:44:13.300Z,11.62
2018-07-02T00:46:40.513Z,11.94
2018-07-02T00:49:08.035Z,12.13
2018-07-02T00:51:35.199Z,12.14
2018-07-02T00:54:02.538Z,12.28
2018-07-02T00:56:29.647Z,11.98
2018-07-02T00:58:56.797Z,11.47
2018-07-02T01:01:27.760Z,10.45
2018-07-02T01:03:56.021Z,10.48
2018-07-02T01:06:23.213Z,10.59
2018-07-02T01:08:50.407Z,10.98
2018-07-02T01:11:17.538Z,11.12
2018-07-02T01:13:44.687Z,11.49
2018-07-02T01:16:11.817Z,11.62
2018-07-02T01:18:38.913Z,11.52
2018-07-02T01:21:06.071Z,11.05
2018-07-02T01:23:33.336Z,11.39
2018-07-02T01:26:00.478Z,11.47
2018-07-02T01:28:27.696Z,10.85
2018-07-02T01:30:54.940Z,10.97
2018-07-02T01:33:22.061Z,10.47
2018-07-02T01:35:49.192Z,10.25
2018-07-02T01:38:16.355Z,10.45
2018-07-02T01:40:43.578Z,10.84
2018-07-02T01:43:10.791Z,10.98
2018-07-02T01:45:37.991Z,11.07
2018-07-02T01:48:05.212Z,11.15
2018-07-02T01:50:32.372Z,11.22
2018-07-02T01:52:59.548Z,10.97
2018-07-02T01:55:26.805Z,10.22
2018-07-02T01:57:53.959Z,9.63
2018-07-02T02:00:21.124Z,9.25
2018-07-02T02:02:48.292Z,9.82
2018-07-02T02:05:15.579Z,10.23
2018-07-02T02:07:42.664Z,10.59
2018-07-02T02:10:09.930Z,9.95
2018-07-02T02:12:37.084Z,9.64
2018-07-02T02:15:05.096Z,9.61
2018-07-02T02:17:32.225Z,9.86
2018-07-02T02:19:59.352Z,9.83
2018-07-02T02:22:26.532Z,9.91
2018-07-02T02:24:53.720Z,10.20
2018-07-02T02:27:20.938Z,10.21
2018-07-02T02:29:48.095Z,10.07
2018-07-02T02:32:15.365Z,10.38
2018-07-02T02:34:42.478Z,10.05
2018-07-02T02:37:09.659Z,9.68
2018-07-02T02:39:36.807Z,9.96
2018-07-02T02:42:04.094Z,9.75
2018-07-02T02:44:31.299Z,9.48
2018-07-02T02:46:58.461Z,9.59
2018-07-02T02:49:25.668Z,9.75
2018-07-02T02:51:52.824Z,10.01
2018-07-02T02:54:19.965Z,9.81
2018-07-02T02:56:47.128Z,9.94
2018-07-02T02:59:14.256Z,9.68
2018-07-02T03:01:41.528Z,9.46
2018-07-02T03:04:08.665Z,9.28
2018-07-02T03:06:35.843Z,8.84
2018-07-02T03:09:04.853Z,8.92
2018-07-02T03:11:31.928Z,9.40
2018-07-02T03:13:59.062Z,9.58
2018-07-02T03:16:26.261Z,9.68
2018-07-02T03:18:53.478Z,9.76
2018-07-02T03:21:20.691Z,9.07
2018-07-02T03:23:47.848Z,9.12
2018-07-02T03:26:14.996Z,9.45
2018-07-02T03:28:42.180Z,9.43
2018-07-02T03:31:09.333Z,9.37
2018-07-02T03:33:36.454Z,9.21
2018-07-02T03:36:03.644Z,9.02
2018-07-02T03:38:31.148Z,9.23
2018-07-02T03:40:58.376Z,8.88
2018-07-02T03:43:25.524Z,8.61
2018-07-02T03:45:52.703Z,8.52
2018-07-02T03:48:19.852Z,8.80
2018-07-02T03:50:47.027Z,9.02
2018-07-02T03:53:14.208Z,9.05
2018-07-02T03:55:41.385Z,9.07
2018-07-02T03:58:08.523Z,9.16
2018-07-02T04:00:35.802Z,8.97
2018-07-02T04:03:02.909Z,9.34
2018-07-02T04:05:30.092Z,9.52
2018-07-02T04:07:57.235Z,9.31
2018-07-02T04:10:24.418Z,9.58
2018-07-02T04:12:51.551Z,9.53
2018-07-02T04:15:18.708Z,9.82
2018-07-02T04:17:45.908Z,10.14
2018-07-02T04:20:13.275Z,9.72
2018-07-02T04:22:40.455Z,9.66
2018-07-02T04:25:07.589Z,10.08
2018-07-02T04:27:34.713Z,10.63
2018-07-02T04:30:01.901Z,10.98
2018-07-02T04:32:29.028Z,11.09
2018-07-02T04:34:56.220Z,11.39
2018-07-02T04:37:23.411Z,11.54
2018-07-02T04:39:50.565Z,11.76
2018-07-02T04:42:17.699Z,11.88
2018-07-02T04:44:44.872Z,12.06
2018-07-02T04:47:12.038Z,12.06
2018-07-02T04:49:39.206Z,12.10
2018-07-02T04:52:06.410Z,12.21
2018-07-02T04:54:33.667Z,12.03
2018-07-02T04:57:00.905Z,11.53
2018-07-02T04:59:28.076Z,12.09
2018-07-02T05:01:55.312Z,12.45
2018-07-02T05:04:22.548Z,12.68
2018-07-02T05:06:49.667Z,12.61
2018-07-02T05:09:17.200Z,12.69
2018-07-02T05:11:44.317Z,13.03
2018-07-02T05:14:11.442Z,13.17
2018-07-02T05:16:38.584Z,13.33
2018-07-02T05:32:10.296Z,13.75
2018-07-02T05:34:37.466Z,14.77
2018-07-02T05:37:04.610Z,14.36
2018-07-02T05:39:31.777Z,14.81
2018-07-02T05:41:58.864Z,15.27
2018-07-02T05:44:26.240Z,15.49
2018-07-02T05:46:53.365Z,15.45
2018-07-02T05:49:21.093Z,15.51
2018-07-02T05:51:48.713Z,15.28
2018-07-02T05:54:15.952Z,15.84
2018-07-02T05:56:44.193Z,16.12
2018-07-02T05:59:13.346Z,16.28
2018-07-02T06:01:40.455Z,16.47
2018-07-02T06:04:07.565Z,16.49
2018-07-02T06:06:34.644Z,16.69
2018-07-02T06:09:01.745Z,16.79
2018-07-02T06:11:28.891Z,16.91
2018-07-02T06:13:55.992Z,17.00
2018-07-02T06:16:23.160Z,17.38
2018-07-02T06:18:50.279Z,17.38
2018-07-02T06:21:17.392Z,17.67
2018-07-02T06:23:44.514Z,17.80
2018-07-02T06:26:12.528Z,17.73
2018-07-02T06:28:39.732Z,17.66
2018-07-02T06:31:06.868Z,18.00
2018-07-02T06:33:34.040Z,18.44
2018-07-02T06:36:01.156Z,18.54
2018-07-02T06:38:28.289Z,18.53
2018-07-02T06:40:55.499Z,18.43
2018-07-02T06:43:22.711Z,18.40
2018-07-02T06:45:49.975Z,18.58
2018-07-02T06:48:17.102Z,18.58
2018-07-02T06:50:44.232Z,18.55
2018-07-02T06:53:11.402Z,18.41
2018-07-02T06:55:38.565Z,18.76
2018-07-02T06:58:05.701Z,18.74
2018-07-02T07:00:32.863Z,18.94
2018-07-02T07:02:59.984Z,18.87
2018-07-02T07:05:27.096Z,19.09
2018-07-02T07:07:54.261Z,19.19
2018-07-02T07:10:21.460Z,19.28
2018-07-02T07:12:48.600Z,19.47
2018-07-02T07:15:15.710Z,20.01
2018-07-02T07:17:42.864Z,19.91
2018-07-02T07:20:10.021Z,19.91
2018-07-02T07:22:37.120Z,19.69
2018-07-02T07:25:04.381Z,19.71
2018-07-02T07:27:31.533Z,19.63
2018-07-02T07:29:58.689Z,20.00
2018-07-02T07:32:25.795Z,19.68
2018-07-02T07:34:52.976Z,19.94
2018-07-02T07:37:20.097Z,19.89
2018-07-02T07:39:47.298Z,19.83
2018-07-02T07:42:14.435Z,20.00
2018-07-02T07:44:41.557Z,19.83
2018-07-02T07:47:08.674Z,20.10
2018-07-02T07:49:35.811Z,19.83
2018-07-02T07:52:02.938Z,20.14
2018-07-02T07:54:30.171Z,20.29
2018-07-02T07:56:57.316Z,20.32
2018-07-02T07:59:24.481Z,20.46
2018-07-02T08:01:51.605Z,20.40
2018-07-02T08:04:18.685Z,20.55
2018-07-02T08:06:45.845Z,20.59
2018-07-02T08:09:13.014Z,20.64
2018-07-02T08:11:40.629Z,20.40
2018-07-02T08:14:07.780Z,20.42
2018-07-02T08:16:34.972Z,20.75
2018-07-02T08:19:02.172Z,20.84
2018-07-02T08:21:29.231Z,20.74
2018-07-02T08:23:56.360Z,20.88
2018-07-02T08:26:23.531Z,21.24
2018-07-02T08:28:50.730Z,21.60
2018-07-02T08:31:17.873Z,21.94
2018-07-02T08:33:45.040Z,21.79
2018-07-02T08:36:12.446Z,21.67
2018-07-02T08:38:39.591Z,21.70
2018-07-02T08:41:06.756Z,21.91
2018-07-02T08:43:33.892Z,20.81
2018-07-02T08:46:00.996Z,21.41
2018-07-02T08:48:28.136Z,21.77
2018-07-02T08:50:55.231Z,22.18
2018-07-02T08:53:22.444Z,22.05
2018-07-02T08:55:49.656Z,22.13
2018-07-02T08:58:16.765Z,22.30
2018-07-02T09:00:43.885Z,22.32
2018-07-02T09:03:11.023Z,22.37
2018-07-02T09:05:38.152Z,22.17
2018-07-02T09:08:05.393Z,21.77
2018-07-02T09:10:32.601Z,21.43
2018-07-02T09:12:59.764Z,21.99
2018-07-02T09:15:26.914Z,22.01
2018-07-02T09:17:54.040Z,22.07
2018-07-02T09:20:21.189Z,21.67
2018-07-02T09:22:48.382Z,22.13
2018-07-02T09:25:15.550Z,22.39
2018-07-02T09:27:42.656Z,22.26
2018-07-02T09:30:09.866Z,22.56
2018-07-02T09:32:37.081Z,21.99
2018-07-02T09:35:04.361Z,22.16
2018-07-02T09:37:31.503Z,22.52
2018-07-02T09:39:58.670Z,22.30
2018-07-02T09:42:25.808Z,21.72
2018-07-02T09:44:52.988Z,22.17
2018-07-02T09:47:20.105Z,22.96
2018-07-02T09:49:47.262Z,22.35
2018-07-02T09:52:14.422Z,22.23
2018-07-02T09:54:41.684Z,22.10
2018-07-02T09:57:08.769Z,22.75
2018-07-02T09:59:35.940Z,21.94
2018-07-02T10:02:03.068Z,22.28
2018-07-02T10:04:30.289Z,22.42
2018-07-02T10:06:57.399Z,23.22
2018-07-02T10:09:24.543Z,22.96
2018-07-02T10:11:51.734Z,22.84
2018-07-02T10:14:18.903Z,23.11
2018-07-02T10:16:46.115Z,22.97
2018-07-02T10:19:13.272Z,23.30
2018-07-02T10:21:40.436Z,23.62
2018-07-02T10:24:07.607Z,23.54
2018-07-02T10:26:34.794Z,23.81
2018-07-02T10:29:01.999Z,23.61
2018-07-02T10:31:29.202Z,24.01
2018-07-02T10:33:56.315Z,23.48
2018-07-02T10:36:23.435Z,23.18
2018-07-02T10:38:50.596Z,23.28
2018-07-02T10:41:17.756Z,23.45
2018-07-02T10:43:44.873Z,23.63
2018-07-02T10:46:12.032Z,23.88
2018-07-02T10:48:39.153Z,24.25
2018-07-02T10:51:06.313Z,24.16
2018-07-02T10:53:33.532Z,23.59
2018-07-02T10:56:00.704Z,24.50
2018-07-02T10:58:27.831Z,24.80
2018-07-02T11:00:55.002Z,25.00
2018-07-02T11:03:22.120Z,24.43
2018-07-02T11:05:49.272Z,24.73
2018-07-02T11:08:16.445Z,24.40
2018-07-02T11:10:43.606Z,24.45
2018-07-02T11:13:11.588Z,24.95
2018-07-02T11:15:39.753Z,24.41
2018-07-02T11:18:07.147Z,25.46
2018-07-02T11:20:34.590Z,25.00
2018-07-02T11:23:01.733Z,24.84
2018-07-02T11:25:28.902Z,24.70
2018-07-02T11:27:56.086Z,24.99
2018-07-02T11:30:23.863Z,25.29
2018-07-02T11:32:51.021Z,25.10
2018-07-02T11:35:18.337Z,25.37
2018-07-02T11:37:45.840Z,25.82
2018-07-02T11:40:13.332Z,25.48
2018-07-02T11:42:40.501Z,25.65
2018-07-02T11:45:07.783Z,25.12
2018-07-02T11:47:35.319Z,25.86
2018-07-02T11:50:02.642Z,25.15
2018-07-02T11:52:29.973Z,24.98
2018-07-02T11:54:57.361Z,25.13
2018-07-02T11:57:24.945Z,25.86
2018-07-02T11:59:52.184Z,25.96
2018-07-02T12:02:19.434Z,25.84
2018-07-02T12:04:46.914Z,25.83
2018-07-02T12:07:14.098Z,25.78
2018-07-02T12:09:41.263Z,25.76
2018-07-02T12:12:08.420Z,25.58
2018-07-02T12:14:35.560Z,26.07
2018-07-02T12:17:02.822Z,26.27
2018-07-02T12:19:30.023Z,26.28
2018-07-02T12:21:57.165Z,26.93
2018-07-02T12:24:24.273Z,26.65
2018-07-02T12:26:51.980Z,26.40
2018-07-02T12:29:19.219Z,27.21
2018-07-02T12:31:46.368Z,26.99
2018-07-02T12:34:13.562Z,27.37
2018-07-02T12:36:40.833Z,27.19
2018-07-02T12:39:09.849Z,26.54
2018-07-02T12:41:37.136Z,26.18
2018-07-02T12:44:04.301Z,26.29
2018-07-02T12:46:31.488Z,25.82
2018-07-02T12:48:58.716Z,25.93
2018-07-02T12:51:25.871Z,26.29
2018-07-02T12:53:53.092Z,26.29
2018-07-02T12:56:20.295Z,26.92
2018-07-02T12:58:47.552Z,26.08
2018-07-02T13:01:14.675Z,25.87
2018-07-02T13:03:41.818Z,26.74
2018-07-02T13:06:09.105Z,26.87
2018-07-02T13:08:36.236Z,27.39
2018-07-02T13:11:03.437Z,26.88
2018-07-02T13:13:30.619Z,27.13
2018-07-02T13:15:57.688Z,27.62
2018-07-02T13:18:24.866Z,28.12
2018-07-02T13:20:52.101Z,27.22
2018-07-02T13:23:19.214Z,27.60
2018-07-02T13:25:46.426Z,28.57
2018-07-02T13:28:13.568Z,28.52
2018-07-02T13:30:40.733Z,28.27
2018-07-02T13:33:08.176Z,27.14
2018-07-02T13:35:35.385Z,27.16
2018-07-02T13:38:02.556Z,27.57
2018-07-02T13:40:29.849Z,27.80
2018-07-02T13:42:57.021Z,27.75
2018-07-02T13:45:24.210Z,27.75
2018-07-02T13:47:51.391Z,28.05
2018-07-02T13:50:18.551Z,28.72
2018-07-02T13:52:46.097Z,28.91
2018-07-02T13:55:14.153Z,29.30
2018-07-02T13:57:41.271Z,27.83
2018-07-02T14:00:08.504Z,28.23
2018-07-02T14:02:35.678Z,28.46
2018-07-02T14:05:02.912Z,27.01
2018-07-02T14:07:30.154Z,28.04
2018-07-02T14:09:57.375Z,28.14
2018-07-02T14:12:24.520Z,28.17
2018-07-02T14:14:51.809Z,26.91
2018-07-02T14:17:18.943Z,27.84
2018-07-02T14:19:46.072Z,28.09
2018-07-02T14:22:13.260Z,27.55
2018-07-02T14:24:40.433Z,27.88
2018-07-02T14:27:07.852Z,27.91
2018-07-02T14:29:34.947Z,27.44
2018-07-02T14:32:02.273Z,27.66
2018-07-02T14:34:29.404Z,27.64
2018-07-02T14:36:56.745Z,28.32
2018-07-02T14:39:23.920Z,28.45
2018-07-02T14:41:51.175Z,28.63
2018-07-02T14:44:18.295Z,29.31
2018-07-02T14:46:45.450Z,29.56
2018-07-02T14:49:12.559Z,29.86
2018-07-02T14:51:39.985Z,29.76
2018-07-02T14:54:07.178Z,28.81
2018-07-02T14:56:34.367Z,27.74
2018-07-02T14:59:01.612Z,27.43
2018-07-02T15:01:28.765Z,27.62
2018-07-02T15:03:55.905Z,27.35
2018-07-02T15:06:23.061Z,27.75
2018-07-02T15:08:50.501Z,27.64
2018-07-02T15:11:17.684Z,28.63
2018-07-02T15:13:44.831Z,29.14
2018-07-02T15:16:12.079Z,28.44
2018-07-02T15:18:39.241Z,28.18
2018-07-02T15:21:06.691Z,27.20
2018-07-02T15:23:33.840Z,27.50
2018-07-02T15:26:01.070Z,28.58
2018-07-02T15:28:28.623Z,28.53
2018-07-02T15:30:55.883Z,28.18
2018-07-02T15:33:23.042Z,28.29
2018-07-02T15:35:50.213Z,29.01
2018-07-02T15:38:17.367Z,28.55
2018-07-02T15:40:44.573Z,28.47
2018-07-02T15:43:11.790Z,28.11
2018-07-02T15:45:39.018Z,28.11
2018-07-02T15:48:06.220Z,27.77
2018-07-02T15:50:33.428Z,28.28
2018-07-02T15:53:00.598Z,28.14
2018-07-02T15:55:27.793Z,27.57
2018-07-02T15:57:54.994Z,27.15
2018-07-02T16:00:22.325Z,26.74
2018-07-02T16:02:49.445Z,26.75
2018-07-02T16:05:18.965Z,27.36
2018-07-02T16:07:46.091Z,26.87
2018-07-02T16:10:13.262Z,26.57
2018-07-02T16:12:40.856Z,26.76
2018-07-02T16:15:08.059Z,26.72
2018-07-02T16:17:35.218Z,26.36
2018-07-02T16:20:02.948Z,26.09
2018-07-02T16:22:30.148Z,26.14
2018-07-02T16:24:57.341Z,26.33
2018-07-02T16:27:24.581Z,26.51
2018-07-02T16:29:51.812Z,25.99
2018-07-02T16:32:18.997Z,26.37
2018-07-02T16:34:46.186Z,25.88
2018-07-02T16:37:14.425Z,25.86
2018-07-02T16:39:41.581Z,25.82
2018-07-02T16:42:08.829Z,25.88
2018-07-02T16:44:35.983Z,25.81
2018-07-02T16:47:03.216Z,25.77
2018-07-02T16:49:30.414Z,25.60
2018-07-02T16:51:57.650Z,25.80
2018-07-02T16:54:24.863Z,25.84
2018-07-02T16:56:52.121Z,25.63
2018-07-02T16:59:19.285Z,25.66
2018-07-02T17:01:46.479Z,25.79
2018-07-02T17:04:13.635Z,25.52
2018-07-02T17:06:40.785Z,25.44
2018-07-02T17:09:09.670Z,25.84
2018-07-02T17:11:37.355Z,25.54
2018-07-02T17:14:04.571Z,25.60
2018-07-02T17:16:31.749Z,25.86
2018-07-02T17:18:58.946Z,25.51
2018-07-02T17:21:26.112Z,25.65
2018-07-02T17:23:53.288Z,25.60
2018-07-02T17:26:20.481Z,25.53
2018-07-02T17:28:47.616Z,25.61
2018-07-02T17:31:14.828Z,25.28
2018-07-02T17:33:41.960Z,25.13
2018-07-02T17:36:09.144Z,25.14
2018-07-02T17:38:36.279Z,24.98
2018-07-02T17:41:03.603Z,25.09
2018-07-02T17:43:30.810Z,25.17
2018-07-02T17:45:58.033Z,24.79
2018-07-02T17:48:31.955Z,24.54
2018-07-02T17:50:59.187Z,24.72
2018-07-02T17:53:26.382Z,24.82
2018-07-02T17:55:53.592Z,24.70
2018-07-02T17:58:20.749Z,24.47
2018-07-02T18:00:47.890Z,24.62
2018-07-02T18:03:15.098Z,24.61
2018-07-02T18:05:42.300Z,24.61
2018-07-02T18:08:09.465Z,24.44
2018-07-02T18:10:36.727Z,24.44
2018-07-02T18:13:03.876Z,24.27
2018-07-02T18:15:31.080Z,24.08
2018-07-02T18:17:58.257Z,24.02
2018-07-02T18:20:25.409Z,23.96
2018-07-02T18:22:52.612Z,23.90
2018-07-02T18:25:19.733Z,23.86
2018-07-02T18:27:46.992Z,23.83
2018-07-02T18:30:14.193Z,23.77
2018-07-02T18:32:41.395Z,23.62
2018-07-02T18:35:08.582Z,23.61
2018-07-02T18:37:35.752Z,23.29
2018-07-02T18:40:03.680Z,22.98
2018-07-02T18:42:30.929Z,22.89
2018-07-02T18:44:58.068Z,22.78
2018-07-02T18:47:25.231Z,22.47
2018-07-02T18:49:52.354Z,22.66
2018-07-02T18:52:19.560Z,22.60
2018-07-02T18:54:46.720Z,22.46
2018-07-02T18:57:13.929Z,22.34
2018-07-02T18:59:41.100Z,22.20
2018-07-02T19:02:08.330Z,22.30
2018-07-02T19:04:35.558Z,22.32
2018-07-02T19:07:02.779Z,22.08
2018-07-02T19:09:29.948Z,22.29
2018-07-02T19:11:57.217Z,22.12
2018-07-02T19:14:24.407Z,22.00
2018-07-02T19:16:51.656Z,21.66
2018-07-02T19:19:18.840Z,21.45
2018-07-02T19:21:45.969Z,21.51
2018-07-02T19:24:13.171Z,21.44
2018-07-02T19:26:40.368Z,21.52
2018-07-02T19:29:07.560Z,21.36
2018-07-02T19:31:34.739Z,21.31
2018-07-02T19:34:01.912Z,21.20
2018-07-02T19:36:29.091Z,20.91
2018-07-02T19:38:56.237Z,20.92
2018-07-02T19:41:23.506Z,20.95
2018-07-02T19:43:51.924Z,20.66
2018-07-02T19:46:19.168Z,20.59
2018-07-02T19:48:47.556Z,20.57
2018-07-02T19:51:14.778Z,20.75
2018-07-02T19:53:41.986Z,20.58
2018-07-02T19:56:09.224Z,20.62
2018-07-02T19:58:36.385Z,20.59
2018-07-02T20:01:03.690Z,20.32
2018-07-02T20:03:30.859Z,20.11
2018-07-02T20:05:58.033Z,19.96
2018-07-02T20:08:25.209Z,19.91
2018-07-02T20:10:52.369Z,19.64
2018-07-02T20:13:19.610Z,19.39
2018-07-02T20:15:47.007Z,19.40
2018-07-02T20:18:14.139Z,18.86
2018-07-02T20:20:41.269Z,19.08
2018-07-02T20:23:08.436Z,19.40
2018-07-02T20:25:35.578Z,19.41
2018-07-02T20:28:02.876Z,19.12
2018-07-02T20:30:30.249Z,19.25
2018-07-02T20:32:57.413Z,18.93
2018-07-02T20:35:24.514Z,18.53
2018-07-02T20:37:51.715Z,18.27
2018-07-02T20:40:18.930Z,18.23
2018-07-02T20:42:46.111Z,18.40
2018-07-02T20:45:13.276Z,18.40
2018-07-02T20:47:40.501Z,17.79
2018-07-02T20:50:08.039Z,18.04
2018-07-02T20:52:35.217Z,18.23
2018-07-02T20:55:02.808Z,18.21
2018-07-02T20:57:30.000Z,18.12
2018-07-02T20:59:57.149Z,18.24
2018-07-02T21:02:24.359Z,18.17
2018-07-02T21:04:51.486Z,18.08
2018-07-02T21:07:18.635Z,18.14
2018-07-02T21:09:45.940Z,17.56
2018-07-02T21:12:13.080Z,17.36
2018-07-02T21:14:40.213Z,17.37
2018-07-02T21:17:07.404Z,17.43
2018-07-02T21:19:34.550Z,16.66
2018-07-02T21:22:01.680Z,16.90
2018-07-02T21:24:28.797Z,17.01
2018-07-02T21:26:55.947Z,17.22
2018-07-02T21:29:23.157Z,17.30
2018-07-02T21:31:50.389Z,17.18
2018-07-02T21:34:17.518Z,16.95
2018-07-02T21:36:44.680Z,17.05
2018-07-02T21:39:13.033Z,17.18
2018-07-02T21:41:40.775Z,17.16
2018-07-02T21:44:07.932Z,16.76
2018-07-02T21:46:35.080Z,16.57
2018-07-02T21:49:02.285Z,16.80
2018-07-02T21:51:29.731Z,16.77
2018-07-02T21:53:57.005Z,16.83
2018-07-02T21:56:24.153Z,16.67
2018-07-02T21:58:51.325Z,16.38
2018-07-02T22:01:19.618Z,16.24
2018-07-02T22:03:46.808Z,16.14
2018-07-02T22:06:13.976Z,16.28
2018-07-02T22:08:41.100Z,16.45
2018-07-02T22:11:08.256Z,16.42
2018-07-02T22:13:35.369Z,16.26
2018-07-02T22:16:02.503Z,16.31
2018-07-02T22:18:29.700Z,16.11
2018-07-02T22:20:56.815Z,15.82
2018-07-02T22:23:23.996Z,15.93
2018-07-02T22:25:51.161Z,15.80
2018-07-02T22:28:18.297Z,15.64
2018-07-02T22:30:45.425Z,15.42
2018-07-02T22:33:12.573Z,15.61
2018-07-02T22:35:39.669Z,15.72
2018-07-02T22:38:06.832Z,15.85
2018-07-02T22:40:34.035Z,15.74
2018-07-02T22:43:01.183Z,15.85
2018-07-02T22:45:28.329Z,15.48
2018-07-02T22:47:55.451Z,15.12
2018-07-02T22:50:22.593Z,15.29
2018-07-02T22:52:49.725Z,15.57
2018-07-02T22:55:16.869Z,15.57
2018-07-02T22:57:43.976Z,15.36
2018-07-02T23:00:11.145Z,14.68
2018-07-02T23:02:38.284Z,15.05
2018-07-02T23:05:05.504Z,15.06
2018-07-02T23:07:32.704Z,15.10
2018-07-02T23:09:59.916Z,14.90
2018-07-02T23:12:27.096Z,14.83
2018-07-02T23:14:54.201Z,15.01
2018-07-02T23:17:21.376Z,14.88
2018-07-02T23:19:48.516Z,14.77
2018-07-02T23:22:15.651Z,14.74
2018-07-02T23:24:42.748Z,14.98
2018-07-02T23:27:09.913Z,15.05
2018-07-02T23:29:37.020Z,14.39
2018-07-02T23:32:04.194Z,14.28
2018-07-02T23:34:31.344Z,14.51
2018-07-02T23:36:58.524Z,13.68
2018-07-02T23:39:25.760Z,13.95
2018-07-02T23:41:52.923Z,13.96
2018-07-02T23:44:20.006Z,14.23
2018-07-02T23:46:47.152Z,14.34
2018-07-02T23:49:14.257Z,14.36
2018-07-02T23:51:41.439Z,14.41
2018-07-02T23:54:08.584Z,14.19
2018-07-02T23:56:35.755Z,14.32
2018-07-02T23:59:02.967Z,14.07
